Craigavon, United Kingdom
Current Conditions -  °F | °C
As of 8:50 PM on Saturday 22 Nov 2014 (Local Time) from EGAA Reporting Station
Clear Clear  
Wind Chill: 34°   Ceiling: Unl
Heat Index: 39°   Visibility: 6mi
Dew Point: 39°   Wind: 7mph
Humidity: 100%   Direction: 250°WSW
Pressure: 29.94"   Gusts: NA
Location:  54.45°N, 6.39°W
Report Text: EGAA 222050Z 25006KT CAVOK 04/04 Q1014
Loading
Personal Weather Stations






























Interactive Weather Map New forecast layout! Learn more

10-Day Weather Forecast

Advertisements
Track Severe Weather on mobile